createdAt,value
2023-02-09T07:03:23.348Z,26.23
2023-02-09T07:06:26.084Z,22.50
2023-02-09T07:09:28.464Z,18.92
2023-02-09T07:12:31.100Z,22.92
2023-02-09T07:15:33.444Z,24.15
2023-02-09T07:18:37.644Z,29.95
2023-02-09T07:24:42.332Z,24.35
2023-02-09T07:27:44.745Z,36.15
2023-02-09T07:30:48.615Z,45.05
2023-02-09T07:33:52.903Z,55.97
2023-02-09T07:36:55.650Z,36.85
2023-02-09T07:39:58.208Z,41.65
2023-02-09T07:43:00.907Z,52.42
2023-02-09T07:46:04.566Z,54.75
2023-02-09T07:52:11.138Z,28.48
2023-02-09T07:55:13.811Z,24.87
2023-02-09T07:58:18.284Z,19.35
2023-02-09T08:01:21.194Z,38.35
2023-02-09T08:04:25.328Z,31.98
2023-02-09T08:07:27.821Z,28.08
2023-02-09T08:10:30.683Z,36.58
2023-02-09T08:13:35.655Z,27.62
2023-02-09T08:16:38.510Z,28.83
2023-02-09T08:19:42.275Z,19.30
2023-02-09T08:25:51.484Z,29.77
2023-02-09T08:28:54.339Z,23.17
2023-02-09T08:31:56.802Z,25.55
2023-02-09T08:35:00.874Z,11.38
2023-02-09T08:38:03.336Z,18.10
2023-02-09T08:41:06.455Z,21.02
2023-02-09T08:44:08.818Z,19.73
2023-02-09T08:47:11.541Z,23.62
2023-02-09T08:50:15.527Z,18.45
2023-02-09T08:53:18.123Z,19.77
2023-02-09T08:56:21.155Z,23.52
2023-02-09T08:59:23.780Z,19.52
2023-02-09T09:02:26.263Z,28.95
2023-02-09T09:05:32.077Z,23.00
2023-02-09T09:08:35.759Z,25.17
2023-02-09T09:11:38.561Z,16.33
2023-02-09T09:14:41.717Z,19.65
2023-02-09T09:17:44.516Z,17.75
2023-02-09T09:20:48.372Z,17.33
2023-02-09T09:23:51.043Z,19.85
2023-02-09T09:26:53.531Z,18.23
2023-02-09T09:29:56.275Z,17.25
2023-02-09T09:32:59.003Z,16.00
2023-02-09T09:36:03.784Z,26.30
2023-02-09T09:39:06.194Z,24.87
2023-02-09T09:42:14.432Z,24.92
2023-02-09T09:45:18.879Z,30.12
2023-02-09T09:48:23.440Z,17.62
2023-02-09T09:51:34.139Z,23.55
2023-02-09T09:54:36.828Z,17.00
2023-02-09T09:57:42.029Z,18.75
2023-02-09T10:00:45.265Z,29.70
2023-02-09T10:03:48.155Z,15.55
2023-02-09T10:06:57.063Z,20.00
2023-02-09T10:10:02.120Z,22.15
2023-02-09T10:13:08.943Z,15.15
2023-02-09T10:16:15.233Z,13.85
2023-02-09T10:19:18.763Z,12.63
2023-02-09T10:22:22.725Z,12.18
2023-02-09T10:25:38.603Z,15.75
2023-02-09T10:28:43.303Z,13.05
2023-02-09T10:31:47.848Z,14.20
2023-02-09T10:34:51.444Z,15.63
2023-02-09T10:37:57.739Z,22.87
2023-02-09T10:41:00.498Z,17.20
2023-02-09T10:44:05.908Z,17.85
2023-02-09T10:47:10.364Z,14.38
2023-02-09T10:50:17.084Z,11.68
2023-02-09T10:53:23.074Z,13.35
2023-02-09T10:56:26.008Z,19.80
2023-02-09T10:59:29.928Z,12.63
2023-02-09T11:02:36.852Z,16.20
2023-02-09T11:05:39.575Z,43.63
2023-02-09T11:08:44.827Z,12.90
2023-02-09T11:11:47.498Z,14.63
2023-02-09T11:14:49.853Z,14.45
2023-02-09T11:17:53.656Z,13.62
2023-02-09T11:20:58.238Z,17.60
2023-02-09T11:24:03.334Z,26.10
2023-02-09T11:27:07.075Z,15.20
2023-02-09T11:33:19.342Z,14.65
2023-02-09T11:36:30.962Z,16.73
2023-02-09T11:39:41.021Z,16.08
2023-02-09T11:42:48.544Z,22.67
2023-02-09T11:45:51.427Z,12.18
2023-02-09T11:48:56.236Z,13.40
2023-02-09T11:51:59.159Z,16.40
2023-02-09T11:55:08.983Z,17.00
2023-02-09T11:58:31.101Z,12.52
2023-02-09T12:01:39.069Z,19.52
2023-02-09T12:04:43.864Z,12.80
2023-02-09T12:07:51.811Z,35.60
2023-02-09T12:11:03.996Z,10.98
2023-02-09T12:14:20.979Z,15.10
2023-02-09T12:17:25.087Z,13.30
2023-02-09T12:20:30.530Z,19.80
2023-02-09T12:23:33.620Z,14.20
2023-02-09T12:26:40.776Z,16.05
2023-02-09T12:29:43.464Z,30.45
2023-02-09T12:32:45.880Z,15.15
2023-02-09T12:35:58.247Z,18.80
2023-02-09T12:39:05.351Z,13.25
2023-02-09T12:42:28.253Z,16.20
2023-02-09T12:45:33.208Z,19.05
2023-02-09T12:48:37.686Z,17.08
2023-02-09T12:51:43.997Z,11.75
2023-02-09T12:54:48.723Z,25.02
2023-02-09T12:57:52.548Z,28.77
2023-02-09T13:04:00.010Z,21.17
2023-02-09T13:07:02.717Z,18.98
2023-02-09T13:10:13.664Z,11.57
2023-02-09T13:13:18.723Z,14.93
2023-02-09T13:16:50.039Z,18.92
2023-02-09T13:20:00.063Z,14.30
2023-02-09T13:23:16.932Z,16.95
2023-02-09T13:26:21.166Z,14.48
2023-02-09T13:29:25.875Z,28.98
2023-02-09T13:32:50.502Z,18.52
2023-02-09T13:36:09.175Z,11.70
2023-02-09T13:39:22.245Z,26.50
2023-02-09T13:42:25.455Z,17.65
2023-02-09T13:45:29.616Z,14.60
2023-02-09T13:48:33.766Z,18.73
2023-02-09T13:51:36.451Z,19.60
2023-02-09T13:54:38.899Z,18.42
2023-02-09T13:57:42.260Z,18.05
2023-02-09T14:00:47.757Z,19.85
2023-02-09T14:03:58.345Z,13.05
2023-02-09T14:07:02.933Z,11.68
2023-02-09T14:10:06.705Z,11.73
2023-02-09T14:13:15.069Z,38.03
2023-02-09T14:16:19.512Z,17.65
2023-02-09T14:19:23.788Z,12.85
2023-02-09T14:22:30.622Z,14.10
2023-02-09T14:25:33.141Z,24.60
2023-02-09T14:28:35.922Z,18.50
2023-02-09T14:31:42.648Z,15.95
2023-02-09T14:34:45.343Z,13.45
2023-02-09T14:37:48.248Z,21.60
2023-02-09T14:40:50.919Z,11.23
2023-02-09T14:44:00.667Z,25.88
2023-02-09T14:47:04.730Z,11.00
2023-02-09T14:50:08.492Z,16.23
2023-02-09T14:56:17.373Z,20.70
2023-02-09T14:59:20.403Z,9.90
2023-02-09T15:02:26.939Z,13.07
2023-02-09T15:05:29.727Z,13.93
2023-02-09T15:08:35.010Z,13.90
2023-02-09T15:11:56.217Z,23.98
2023-02-09T15:14:59.982Z,16.62
2023-02-09T15:21:06.311Z,16.33
2023-02-09T15:24:08.988Z,18.85
2023-02-09T15:27:26.263Z,23.80
2023-02-09T15:30:30.703Z,20.92
2023-02-09T15:33:34.449Z,32.20
2023-02-09T15:39:39.208Z,43.95
2023-02-09T15:43:00.856Z,33.15
2023-02-09T15:46:06.014Z,46.70
2023-02-09T15:49:10.121Z,34.28
2023-02-09T15:52:12.695Z,38.72
2023-02-09T15:55:17.131Z,53.35
2023-02-09T15:58:29.071Z,54.92
2023-02-09T16:01:35.069Z,40.20
2023-02-09T16:04:39.399Z,40.90
